Time;durP1;ratioP1;P1;durP2;ratioP2;P2;SDS_P1;SDS_P2;PMS_P1;PMS_P2;Temp;Humidity;BMP_temperature;BMP_pressure;BME280_temperature;BME280_humidity;BME280_pressure;Samples;Min_cycle;Max_cycle;Signal;HPM_P1;HPM_P2
2022/08/08 00:03:18;;;;;;;0.28;0.28;;;17.70;91.00;;;;;;5043535;28;20450;-60
2022/08/08 00:06:09;;;;;;;0.30;0.30;;;17.60;91.20;;;;;;5025789;28;20433;-60
2022/08/08 00:08:46;;;;;;;0.20;0.20;;;17.60;91.20;;;;;;5018232;28;20539;-60
2022/08/08 00:11:33;;;;;;;0.30;0.30;;;17.40;91.30;;;;;;5027198;28;20437;-60
2022/08/08 00:14:29;;;;;;;0.15;0.15;;;17.40;91.40;;;;;;5035828;28;20569;-60
2022/08/08 00:17:29;;;;;;;0.25;0.25;;;17.30;91.40;;;;;;5029803;28;20434;-60
2022/08/08 00:20:30;;;;;;;0.20;0.20;;;17.30;91.80;;;;;;5024332;28;20868;-60
2022/08/08 00:23:09;;;;;;;0.20;0.20;;;17.20;91.60;;;;;;5032601;28;20472;-60
2022/08/08 00:25:47;;;;;;;0.30;0.30;;;17.20;91.80;;;;;;5031111;28;20430;-60
2022/08/08 00:28:23;;;;;;;0.40;0.40;;;17.10;91.90;;;;;;5038866;28;20898;-60
2022/08/08 00:31:13;;;;;;;0.20;0.20;;;17.00;91.80;;;;;;5028109;28;20845;-61
2022/08/08 00:37:11;;;;;;;0.30;0.30;;;16.80;92.10;;;;;;5031783;28;20465;-60
2022/08/08 00:40:24;;;;;;;0.20;0.20;;;16.70;92.50;;;;;;5025701;28;20430;-60
2022/08/08 00:43:40;;;;;;;0.20;0.20;;;16.50;92.50;;;;;;5034834;28;20418;-60
2022/08/08 00:46:49;;;;;;;0.20;0.20;;;16.50;92.80;;;;;;5030067;28;20492;-60
2022/08/08 00:49:47;;;;;;;0.20;0.20;;;16.60;92.70;;;;;;5027476;28;20436;-60
2022/08/08 00:52:34;;;;;;;0.35;0.35;;;16.70;92.60;;;;;;5036999;28;20436;-60
2022/08/08 00:55:21;;;;;;;0.20;0.20;;;16.70;92.70;;;;;;5021319;28;20431;-61
2022/08/08 00:58:45;;;;;;;0.20;0.20;;;16.60;92.90;;;;;;5024132;28;20887;-60
2022/08/08 01:01:47;;;;;;;0.30;0.30;;;16.60;92.70;;;;;;5089256;28;20431;-61
2022/08/08 01:04:26;;;;;;;0.40;0.40;;;16.60;92.80;;;;;;5080176;28;20421;-60
2022/08/08 01:07:25;;;;;;;0.28;0.28;;;16.70;92.70;;;;;;5084293;28;20458;-60
2022/08/08 01:10:47;;;;;;;0.20;0.20;;;16.70;92.60;;;;;;5027684;28;20417;-60
2022/08/08 01:13:51;;;;;;;0.30;0.30;;;16.70;92.60;;;;;;5036540;28;20429;-60
2022/08/08 01:17:01;;;;;;;0.20;0.20;;;16.70;92.60;;;;;;5025467;28;20427;-61
2022/08/08 01:20:01;;;;;;;0.40;0.40;;;16.70;92.60;;;;;;5021498;28;20435;-61
2022/08/08 01:23:02;;;;;;;0.30;0.30;;;16.70;92.70;;;;;;5024896;28;20502;-61
2022/08/08 01:25:56;;;;;;;0.20;0.20;;;16.60;92.80;;;;;;5039700;28;20440;-61
2022/08/08 01:28:55;;;;;;;0.20;0.20;;;16.60;92.90;;;;;;5008423;28;20437;-61
2022/08/08 01:31:48;;;;;;;0.30;0.30;;;16.50;92.90;;;;;;5021305;28;20477;-61
2022/08/08 01:34:49;;;;;;;0.20;0.20;;;16.50;92.90;;;;;;4989338;28;20434;-60
2022/08/08 01:37:16;;;;;;;0.30;0.30;;;16.50;93.00;;;;;;4993119;28;20432;-60
2022/08/08 01:40:32;;;;;;;0.30;0.30;;;16.60;92.90;;;;;;4990400;28;20438;-61
2022/08/08 01:43:17;;;;;;;0.20;0.20;;;16.60;93.10;;;;;;4990952;28;20487;-60
2022/08/08 01:46:12;;;;;;;0.60;0.38;;;16.70;92.90;;;;;;4995101;28;20469;-60
2022/08/08 01:49:12;;;;;;;0.30;0.30;;;16.60;93.00;;;;;;4992079;28;20449;-61
2022/08/08 01:52:07;;;;;;;0.40;0.30;;;16.60;93.00;;;;;;5047215;28;20765;-60
2022/08/08 01:55:16;;;;;;;0.20;0.20;;;16.70;93.10;;;;;;5036673;28;20417;-60
2022/08/08 01:58:28;;;;;;;0.30;0.30;;;16.60;92.90;;;;;;5029683;28;20437;-61
2022/08/08 02:01:28;;;;;;;0.28;0.28;;;16.60;93.00;;;;;;5030422;28;20429;-62
2022/08/08 02:04:34;;;;;;;0.20;0.20;;;16.60;93.00;;;;;;5017275;28;20419;-61
2022/08/08 02:07:19;;;;;;;0.30;0.30;;;16.60;93.20;;;;;;5031350;28;20440;-61
2022/08/08 02:09:50;;;;;;;0.40;0.40;;;16.50;93.20;;;;;;5036780;28;20488;-61
2022/08/08 02:12:50;;;;;;;0.30;0.30;;;16.40;93.20;;;;;;5031560;28;20858;-61
2022/08/08 02:15:45;;;;;;;0.22;0.22;;;16.40;93.30;;;;;;5031979;28;20461;-60
2022/08/08 02:18:31;;;;;;;0.35;0.35;;;16.30;93.70;;;;;;5021555;28;20439;-61
2022/08/08 02:24:28;;;;;;;0.20;0.20;;;16.30;93.50;;;;;;5013677;28;20477;-61
2022/08/08 02:26:59;;;;;;;0.30;0.30;;;16.20;93.50;;;;;;5022228;28;20429;-60
2022/08/08 02:29:35;;;;;;;0.30;0.30;;;16.20;93.60;;;;;;5024973;28;20437;-61
2022/08/08 02:32:36;;;;;;;0.20;0.20;;;16.20;93.80;;;;;;5032282;28;20422;-60
2022/08/08 02:35:34;;;;;;;0.20;0.20;;;16.20;93.80;;;;;;5024512;28;20479;-61
2022/08/08 02:38:42;;;;;;;0.30;0.30;;;16.10;93.90;;;;;;5019656;28;20428;-60
2022/08/08 02:41:32;;;;;;;0.20;0.20;;;16.10;94.00;;;;;;5037727;28;20522;-61
2022/08/08 02:44:37;;;;;;;0.40;0.40;;;16.00;94.00;;;;;;5011574;28;20446;-61
2022/08/08 02:47:36;;;;;;;0.20;0.20;;;16.00;94.10;;;;;;5028955;28;20464;-60
2022/08/08 02:50:03;;;;;;;0.40;0.40;;;15.90;94.20;;;;;;5011550;28;20956;-61
2022/08/08 02:52:49;;;;;;;0.20;0.20;;;16.00;94.30;;;;;;5034770;28;20520;-61
2022/08/08 02:55:50;;;;;;;0.20;0.20;;;16.00;94.20;;;;;;5023682;28;20434;-61
2022/08/08 02:59:03;;;;;;;0.20;0.20;;;15.80;94.40;;;;;;5024522;28;20424;-62
2022/08/08 03:02:29;;;;;;;0.30;0.30;;;15.80;94.50;;;;;;5034072;28;20780;-61
2022/08/08 03:05:21;;;;;;;0.22;0.22;;;15.70;94.50;;;;;;5023856;28;20561;-62
2022/08/08 03:08:13;;;;;;;0.20;0.20;;;15.70;94.60;;;;;;5025218;28;20526;-61
2022/08/08 03:11:24;;;;;;;0.30;0.30;;;15.60;94.60;;;;;;5021470;28;20506;-61
2022/08/08 03:14:35;;;;;;;0.20;0.20;;;15.60;94.70;;;;;;5025523;28;20416;-61
2022/08/08 03:17:28;;;;;;;0.30;0.30;;;15.70;94.80;;;;;;5033178;28;20793;-61
2022/08/08 03:20:06;;;;;;;0.30;0.30;;;15.70;94.80;;;;;;5027974;28;20433;-60
2022/08/08 03:22:52;;;;;;;0.30;0.30;;;15.70;94.80;;;;;;5044803;28;20437;-61
2022/08/08 03:25:27;;;;;;;0.30;0.30;;;15.60;94.90;;;;;;5018111;28;20434;-61
2022/08/08 03:28:11;;;;;;;0.30;0.30;;;15.60;95.00;;;;;;5024264;28;20442;-61
2022/08/08 03:30:45;;;;;;;0.40;0.40;;;15.60;95.10;;;;;;5027172;28;20976;-61
2022/08/08 03:33:17;;;;;;;0.30;0.30;;;15.60;95.20;;;;;;5035430;28;20468;-60
2022/08/08 03:36:11;;;;;;;0.20;0.20;;;15.60;95.20;;;;;;5032195;28;20514;-62
2022/08/08 03:38:49;;;;;;;0.30;0.30;;;15.60;95.10;;;;;;5041932;28;20429;-61
2022/08/08 03:41:36;;;;;;;0.30;0.30;;;15.60;95.10;;;;;;5018658;28;20436;-60
2022/08/08 03:44:34;;;;;;;0.60;0.20;;;15.60;95.30;;;;;;5036726;28;20898;-61
2022/08/08 03:47:01;;;;;;;0.20;0.20;;;15.60;95.30;;;;;;5027926;28;20435;-61
2022/08/08 03:49:46;;;;;;;0.20;0.20;;;15.60;95.40;;;;;;5023564;28;20449;-60
2022/08/08 03:52:30;;;;;;;0.20;0.20;;;15.50;95.40;;;;;;5031590;28;20494;-60
2022/08/08 03:55:01;;;;;;;0.20;0.20;;;15.50;95.60;;;;;;5027954;28;20483;-60
2022/08/08 03:57:53;;;;;;;0.20;0.20;;;15.50;95.60;;;;;;5034691;28;20473;-60
2022/08/08 04:00:40;;;;;;;0.20;0.20;;;15.50;95.60;;;;;;5031818;28;20916;-60
2022/08/08 04:03:36;;;;;;;0.45;0.45;;;15.50;95.70;;;;;;5029755;28;20485;-61
2022/08/08 04:06:23;;;;;;;0.30;0.30;;;15.50;95.70;;;;;;5034663;28;20474;-60
2022/08/08 04:08:56;;;;;;;0.40;0.40;;;15.60;95.80;;;;;;5028478;28;20425;-60
2022/08/08 04:11:26;;;;;;;0.20;0.20;;;15.50;95.80;;;;;;5029478;28;20441;-61
2022/08/08 04:13:58;;;;;;;0.20;0.20;;;15.50;95.80;;;;;;5027181;28;20512;-60
2022/08/08 04:16:45;;;;;;;0.30;0.30;;;15.50;95.90;;;;;;5032801;28;20426;-60
2022/08/08 04:19:15;;;;;;;0.20;0.20;;;15.50;96.00;;;;;;5026090;28;20537;-60
2022/08/08 04:21:51;;;;;;;0.20;0.20;;;15.40;96.10;;;;;;5030833;28;20496;-60
2022/08/08 04:24:27;;;;;;;0.30;0.30;;;15.40;96.10;;;;;;5020402;28;20457;-60
2022/08/08 04:26:58;;;;;;;0.20;0.20;;;15.40;96.20;;;;;;5033978;28;20432;-60
2022/08/08 04:29:26;;;;;;;0.27;0.27;;;15.40;96.40;;;;;;5016611;28;20436;-60
2022/08/08 04:31:52;;;;;;;0.30;0.30;;;15.40;96.40;;;;;;5029597;28;20484;-60
2022/08/08 04:34:26;;;;;;;0.20;0.20;;;15.30;96.50;;;;;;5039376;28;20954;-60
2022/08/08 04:37:09;;;;;;;0.30;0.30;;;15.30;96.70;;;;;;5030767;28;20541;-60
2022/08/08 04:39:37;;;;;;;0.20;0.20;;;15.20;96.70;;;;;;5024438;28;20425;-60
2022/08/08 04:42:30;;;;;;;0.43;0.43;;;15.20;96.80;;;;;;5038084;28;21127;-60
2022/08/08 04:44:59;;;;;;;0.22;0.22;;;15.20;97.00;;;;;;5004632;28;20433;-60
2022/08/08 04:47:26;;;;;;;0.40;0.40;;;15.30;97.00;;;;;;5020850;28;20490;-60
2022/08/08 04:49:58;;;;;;;0.30;0.30;;;15.40;97.00;;;;;;5039344;28;21039;-60
2022/08/08 04:52:30;;;;;;;0.20;0.20;;;15.50;96.90;;;;;;5020947;28;20436;-60
2022/08/08 04:55:01;;;;;;;0.30;0.30;;;15.60;97.00;;;;;;5019440;28;20443;-60
2022/08/08 04:57:31;;;;;;;0.30;0.30;;;15.60;96.90;;;;;;5021848;28;20430;-60
2022/08/08 05:00:01;;;;;;;0.30;0.30;;;15.60;97.00;;;;;;5028265;28;20428;-60
2022/08/08 05:02:30;;;;;;;0.20;0.20;;;15.60;97.10;;;;;;5030152;28;20460;-60
2022/08/08 05:04:59;;;;;;;0.32;0.32;;;15.60;97.30;;;;;;5032271;28;20439;-60
2022/08/08 05:07:27;;;;;;;0.20;0.20;;;15.60;97.40;;;;;;5025450;28;20509;-60
2022/08/08 05:10:08;;;;;;;0.20;0.20;;;15.70;97.50;;;;;;5029369;28;20436;-60
2022/08/08 05:12:39;;;;;;;0.20;0.20;;;15.70;97.50;;;;;;5032935;28;20571;-60
2022/08/08 05:15:25;;;;;;;0.30;0.30;;;15.80;97.50;;;;;;5036957;28;20917;-60
2022/08/08 05:18:12;;;;;;;0.30;0.30;;;15.80;97.60;;;;;;5022739;28;20426;-60
2022/08/08 05:20:41;;;;;;;0.30;0.30;;;16.00;97.50;;;;;;5036408;28;20447;-59
2022/08/08 05:23:20;;;;;;;0.10;0.10;;;16.10;97.40;;;;;;5028652;28;20435;-60
2022/08/08 05:25:48;;;;;;;0.30;0.30;;;16.20;97.30;;;;;;5035924;28;20439;-60
2022/08/08 05:28:17;;;;;;;0.40;0.40;;;16.50;97.20;;;;;;5026810;28;20435;-60
2022/08/08 05:31:04;;;;;;;0.30;0.30;;;17.00;97.00;;;;;;5060821;28;20438;-60
2022/08/08 05:33:51;;;;;;;0.30;0.30;;;17.90;96.90;;;;;;5029103;28;20439;-61
2022/08/08 05:36:24;;;;;;;0.30;0.30;;;18.80;95.60;;;;;;5053827;28;20494;-60
2022/08/08 05:38:56;;;;;;;0.20;0.20;;;19.60;94.60;;;;;;5037842;28;20766;-60
2022/08/08 05:41:24;;;;;;;0.20;0.20;;;20.30;94.10;;;;;;5033052;28;20521;-61
2022/08/08 05:44:01;;;;;;;0.50;0.30;;;20.80;93.30;;;;;;5024381;28;20539;-60
2022/08/08 05:46:32;;;;;;;0.20;0.20;;;21.00;92.80;;;;;;5038475;28;21114;-61
2022/08/08 05:49:00;;;;;;;0.20;0.20;;;21.40;92.60;;;;;;5029943;28;21063;-60
2022/08/08 05:51:27;;;;;;;0.20;0.20;;;21.90;92.40;;;;;;5042286;28;20437;-60
2022/08/08 05:54:17;;;;;;;0.20;0.20;;;22.20;91.80;;;;;;5028729;28;20423;-60
2022/08/08 05:57:10;;;;;;;0.30;0.30;;;22.60;91.30;;;;;;5017487;28;20421;-60
2022/08/08 05:59:45;;;;;;;0.30;0.30;;;23.00;90.80;;;;;;5019715;28;20464;-60
2022/08/08 06:05:21;;;;;;;0.32;0.32;;;23.00;90.70;;;;;;5037864;28;20785;-60
2022/08/08 06:08:03;;;;;;;0.20;0.20;;;23.10;90.20;;;;;;5025806;28;21133;-60
2022/08/08 06:10:43;;;;;;;0.20;0.20;;;23.60;90.40;;;;;;5021807;28;20438;-60
2022/08/08 06:13:10;;;;;;;0.40;0.40;;;23.60;90.30;;;;;;5004623;28;20436;-60
2022/08/08 06:15:38;;;;;;;0.30;0.30;;;24.20;90.20;;;;;;5037435;28;20432;-60
2022/08/08 06:18:20;;;;;;;0.30;0.30;;;24.40;89.30;;;;;;5029323;28;20538;-60
2022/08/08 06:20:54;;;;;;;0.30;0.30;;;24.80;89.60;;;;;;5032323;28;20992;-60
2022/08/08 06:23:25;;;;;;;0.30;0.30;;;25.00;87.60;;;;;;5034555;28;20433;-60
2022/08/08 06:26:14;;;;;;;0.30;0.30;;;25.30;88.00;;;;;;5017847;28;20423;-60
2022/08/08 06:29:04;;;;;;;0.28;0.28;;;25.30;87.60;;;;;;5020219;28;20751;-60
2022/08/08 06:31:59;;;;;;;0.20;0.20;;;25.70;86.90;;;;;;5017407;28;20866;-61
2022/08/08 06:34:38;;;;;;;0.30;0.30;;;25.90;86.10;;;;;;5034141;28;20435;-60
2022/08/08 06:37:10;;;;;;;0.40;0.40;;;25.80;87.20;;;;;;5014535;28;20938;-60
2022/08/08 06:39:55;;;;;;;0.20;0.20;;;25.60;86.00;;;;;;5021766;28;20437;-60
2022/08/08 06:42:27;;;;;;;0.30;0.30;;;25.10;85.80;;;;;;5034161;28;21120;-60
2022/08/08 06:44:54;;;;;;;0.30;0.30;;;25.30;85.60;;;;;;5018430;28;21204;-60
2022/08/08 06:47:21;;;;;;;0.20;0.20;;;25.60;85.50;;;;;;5035211;28;20421;-60
2022/08/08 06:49:59;;;;;;;0.30;0.30;;;25.70;85.80;;;;;;5031352;28;21099;-60
2022/08/08 06:52:30;;;;;;;0.20;0.20;;;25.70;84.60;;;;;;5030951;28;20782;-60
2022/08/08 06:55:00;;;;;;;0.20;0.20;;;25.80;85.00;;;;;;5038722;28;20435;-60
2022/08/08 06:57:26;;;;;;;0.30;0.30;;;26.30;84.50;;;;;;5028874;28;20431;-60
2022/08/08 07:00:15;;;;;;;0.20;0.20;;;26.70;83.90;;;;;;5042934;28;20428;-60
2022/08/08 07:03:00;;;;;;;0.20;0.20;;;26.80;83.20;;;;;;5022111;28;20473;-60
2022/08/08 07:05:33;;;;;;;0.20;0.20;;;26.20;83.00;;;;;;5035602;28;20457;-60
2022/08/08 07:08:19;;;;;;;0.30;0.30;;;26.30;84.50;;;;;;5032980;28;20449;-61
2022/08/08 07:10:55;;;;;;;0.30;0.30;;;26.50;82.80;;;;;;5037371;28;20436;-60
2022/08/08 07:13:27;;;;;;;0.30;0.30;;;26.70;82.30;;;;;;5032575;28;20431;-60
2022/08/08 07:16:15;;;;;;;0.30;0.30;;;26.30;82.20;;;;;;5028178;28;20433;-60
2022/08/08 07:19:25;;;;;;;0.10;0.10;;;26.70;83.10;;;;;;5027623;28;20500;-60
2022/08/08 07:21:59;;;;;;;0.30;0.30;;;26.80;81.30;;;;;;5052910;28;20539;-60
2022/08/08 07:24:37;;;;;;;0.30;0.30;;;27.00;82.30;;;;;;5030041;28;20499;-60
2022/08/08 07:27:11;;;;;;;0.30;0.30;;;27.30;81.10;;;;;;5038179;28;20434;-60
2022/08/08 07:29:43;;;;;;;0.20;0.20;;;27.60;81.40;;;;;;5031895;28;20463;-60
2022/08/08 07:32:31;;;;;;;0.30;0.30;;;27.40;81.30;;;;;;5024783;28;20514;-60
2022/08/08 07:35:05;;;;;;;0.20;0.20;;;27.50;80.70;;;;;;5009601;28;20441;-60
2022/08/08 07:37:38;;;;;;;0.20;0.20;;;27.60;80.40;;;;;;5011504;28;20968;-59
2022/08/08 07:40:24;;;;;;;0.30;0.30;;;27.80;80.00;;;;;;5008152;28;20428;-60
2022/08/08 07:42:56;;;;;;;0.30;0.30;;;27.90;80.00;;;;;;5009763;28;20489;-60
2022/08/08 07:45:25;;;;;;;0.40;0.40;;;28.00;79.90;;;;;;5009901;28;20494;-60
2022/08/08 07:48:01;;;;;;;0.20;0.20;;;28.10;80.60;;;;;;5011114;28;20472;-60
2022/08/08 07:50:36;;;;;;;0.20;0.20;;;28.50;80.20;;;;;;5009843;28;20444;-62
2022/08/08 07:53:20;;;;;;;0.20;0.20;;;28.30;79.10;;;;;;5009071;28;20863;-60
2022/08/08 07:56:09;;;;;;;0.20;0.20;;;28.40;80.80;;;;;;5021521;28;20423;-60
2022/08/08 07:58:43;;;;;;;0.20;0.20;;;28.80;79.00;;;;;;5022516;28;20423;-60
2022/08/08 08:01:18;;;;;;;0.40;0.30;;;28.90;78.60;;;;;;5012572;28;20757;-60
2022/08/08 08:04:06;;;;;;;0.50;0.30;;;28.00;78.80;;;;;;5019326;28;20470;-60
2022/08/08 08:06:41;;;;;;;0.38;0.38;;;28.50;79.00;;;;;;5029373;28;20435;-60
2022/08/08 08:09:30;;;;;;;0.57;0.40;;;28.90;78.90;;;;;;5028557;28;20434;-60
2022/08/08 08:12:02;;;;;;;0.30;0.30;;;29.00;78.30;;;;;;5029409;28;20431;-60
2022/08/08 08:14:39;;;;;;;0.30;0.30;;;28.50;78.10;;;;;;5028721;28;20785;-60
2022/08/08 08:17:08;;;;;;;0.20;0.20;;;28.30;78.80;;;;;;5014864;28;20436;-60
2022/08/08 08:19:38;;;;;;;0.30;0.30;;;28.40;79.00;;;;;;5027109;28;20426;-60
2022/08/08 08:22:15;;;;;;;0.30;0.30;;;28.10;80.20;;;;;;5030780;28;20527;-60
2022/08/08 08:24:57;;;;;;;0.28;0.28;;;28.30;80.30;;;;;;5031116;28;20954;-60
2022/08/08 08:27:34;;;;;;;0.30;0.30;;;28.30;79.40;;;;;;5030965;28;20438;-60
2022/08/08 08:30:01;;;;;;;0.30;0.30;;;28.40;79.60;;;;;;5012939;28;20428;-60
2022/08/08 08:32:28;;;;;;;0.30;0.30;;;27.70;80.20;;;;;;5013003;28;20493;-60
2022/08/08 08:35:07;;;;;;;0.30;0.30;;;27.70;79.90;;;;;;5041098;28;20785;-60
2022/08/08 08:37:34;;;;;;;0.20;0.20;;;27.80;79.90;;;;;;5013411;28;20520;-60
2022/08/08 08:40:21;;;;;;;0.30;0.30;;;27.70;81.70;;;;;;5012892;28;20429;-61
2022/08/08 08:42:51;;;;;;;0.20;0.20;;;28.30;80.70;;;;;;5014435;28;20467;-61
2022/08/08 08:45:25;;;;;;;0.28;0.28;;;28.50;80.50;;;;;;5046718;28;20485;-60
2022/08/08 08:47:53;;;;;;;0.20;0.20;;;29.00;78.80;;;;;;5050984;28;20511;-60
2022/08/08 08:50:27;;;;;;;0.20;0.20;;;29.10;79.00;;;;;;5012871;28;20439;-60
2022/08/08 08:53:03;;;;;;;0.35;0.35;;;29.30;78.90;;;;;;5014250;28;20795;-60
2022/08/08 08:55:52;;;;;;;0.30;0.30;;;29.30;78.10;;;;;;5012401;28;20421;-60
2022/08/08 08:58:43;;;;;;;0.30;0.30;;;29.90;78.20;;;;;;5016660;28;20489;-60
2022/08/08 09:01:18;;;;;;;0.50;0.30;;;30.20;77.50;;;;;;5026590;28;20782;-60
2022/08/08 09:03:48;;;;;;;0.30;0.30;;;30.40;77.40;;;;;;5017542;28;20438;-60
2022/08/08 09:06:16;;;;;;;0.30;0.30;;;29.90;77.60;;;;;;5033802;28;20429;-60
2022/08/08 09:09:19;;;;;;;0.20;0.20;;;30.10;76.40;;;;;;5058986;28;20517;-60
2022/08/08 09:12:08;;;;;;;0.30;0.30;;;29.60;76.90;;;;;;5031822;28;20882;-60
2022/08/08 09:14:37;;;;;;;0.30;0.30;;;29.50;77.80;;;;;;5022318;28;20435;-60
2022/08/08 09:17:09;;;;;;;0.30;0.30;;;29.60;77.40;;;;;;5012590;28;20433;-60
2022/08/08 09:19:46;;;;;;;0.25;0.25;;;29.50;77.10;;;;;;5012045;28;20435;-60
2022/08/08 09:22:34;;;;;;;0.30;0.30;;;29.50;77.20;;;;;;5011997;28;20429;-60
2022/08/08 09:25:02;;;;;;;0.30;0.30;;;29.70;77.80;;;;;;5018128;28;20426;-60
2022/08/08 09:27:30;;;;;;;0.20;0.20;;;30.00;79.10;;;;;;5031689;28;20443;-60
2022/08/08 09:30:17;;;;;;;0.40;0.40;;;30.10;77.00;;;;;;5020324;28;20429;-60
2022/08/08 09:32:55;;;;;;;0.20;0.20;;;30.40;75.90;;;;;;5011398;28;20503;-60
2022/08/08 09:35:45;;;;;;;0.30;0.30;;;30.30;75.70;;;;;;5027547;28;20419;-61
2022/08/08 09:38:30;;;;;;;0.30;0.30;;;30.00;74.90;;;;;;5031819;28;20458;-60
2022/08/08 09:41:03;;;;;;;0.32;0.32;;;29.50;76.40;;;;;;5012103;28;20436;-60
2022/08/08 09:43:33;;;;;;;0.20;0.20;;;29.00;77.10;;;;;;5011402;28;20440;-60
2022/08/08 09:46:22;;;;;;;0.30;0.30;;;29.10;78.30;;;;;;5011471;28;20428;-60
2022/08/08 09:48:57;;;;;;;0.28;0.28;;;28.80;77.20;;;;;;5012218;28;20528;-60
2022/08/08 09:51:52;;;;;;;0.32;0.32;;;29.00;75.60;;;;;;5011497;28;20433;-60
2022/08/08 09:54:43;;;;;;;0.30;0.30;;;28.50;76.30;;;;;;5015946;28;20457;-60
2022/08/08 09:57:17;;;;;;;0.30;0.30;;;29.20;76.10;;;;;;5031422;28;20430;-61
2022/08/08 09:59:54;;;;;;;0.20;0.20;;;28.90;75.60;;;;;;5030480;28;20769;-60
2022/08/08 10:02:46;;;;;;;0.40;0.40;;;29.00;76.20;;;;;;5029026;28;20426;-59
2022/08/08 10:05:16;;;;;;;0.30;0.30;;;29.60;75.30;;;;;;5026961;28;20468;-59
2022/08/08 10:07:51;;;;;;;0.60;0.37;;;29.80;76.20;;;;;;5032451;28;20489;-60
2022/08/08 10:10:37;;;;;;;0.30;0.30;;;29.90;76.20;;;;;;5025952;28;20454;-60
2022/08/08 10:13:29;;;;;;;0.30;0.30;;;30.20;75.90;;;;;;5012372;28;20989;-59
2022/08/08 10:16:02;;;;;;;0.30;0.30;;;30.20;75.00;;;;;;5011233;28;20432;-60
2022/08/08 10:18:34;;;;;;;0.30;0.30;;;30.40;75.00;;;;;;5020075;28;20513;-59
2022/08/08 10:21:08;;;;;;;0.30;0.30;;;29.70;75.30;;;;;;5030953;28;20502;-60
2022/08/08 10:23:53;;;;;;;0.40;0.40;;;29.80;75.20;;;;;;5028407;28;20489;-59
2022/08/08 10:26:30;;;;;;;0.32;0.32;;;30.20;74.20;;;;;;5045685;28;20490;-60
2022/08/08 10:29:34;;;;;;;0.30;0.30;;;30.40;74.60;;;;;;5015954;28;20462;-60
2022/08/08 10:32:36;;;;;;;0.20;0.20;;;30.60;74.30;;;;;;5020888;28;20430;-60
2022/08/08 10:35:14;;;;;;;0.30;0.30;;;30.50;75.60;;;;;;5056825;28;20430;-61
2022/08/08 10:38:04;;;;;;;0.25;0.25;;;30.10;75.00;;;;;;5030155;28;20458;-61
2022/08/08 10:40:37;;;;;;;0.20;0.20;;;30.00;74.50;;;;;;5061755;28;20427;-60
2022/08/08 10:43:05;;;;;;;0.40;0.40;;;30.30;74.10;;;;;;5024445;28;20449;-60
2022/08/08 10:45:45;;;;;;;0.20;0.20;;;30.50;73.40;;;;;;5028957;28;20523;-59
2022/08/08 10:48:34;;;;;;;0.30;0.30;;;30.50;74.10;;;;;;5024773;28;20432;-60
2022/08/08 10:51:33;;;;;;;0.30;0.30;;;30.50;74.00;;;;;;5010623;28;20431;-60
2022/08/08 10:54:21;;;;;;;0.35;0.35;;;30.50;75.10;;;;;;5018868;28;20504;-60
2022/08/08 10:56:57;;;;;;;0.30;0.30;;;30.80;73.80;;;;;;5029775;28;20430;-60
2022/08/08 10:59:25;;;;;;;0.30;0.30;;;31.20;73.00;;;;;;5018284;28;20431;-59
2022/08/08 11:01:57;;;;;;;0.40;0.40;;;;;;;;;;5010237;28;20424;-59
2022/08/08 11:04:25;;;;;;;0.40;0.40;;;31.20;73.30;;;;;;5011892;28;20429;-60
2022/08/08 11:07:05;;;;;;;0.40;0.40;;;31.60;73.00;;;;;;5010045;28;20429;-61
2022/08/08 11:09:32;;;;;;;0.43;0.43;;;31.40;75.60;;;;;;5009779;28;20432;-61
2022/08/08 11:12:01;;;;;;;0.30;0.30;;;31.60;73.90;;;;;;5010340;28;20464;-60
2022/08/08 11:14:51;;;;;;;0.30;0.30;;;31.70;73.50;;;;;;5010978;28;20435;-60
2022/08/08 11:17:22;;;;;;;0.40;0.40;;;31.70;73.90;;;;;;5010072;28;20504;-60
2022/08/08 11:20:15;;;;;;;0.30;0.30;;;31.90;73.20;;;;;;5009765;28;20424;-60
2022/08/08 11:22:50;;;;;;;0.40;0.40;;;32.20;72.60;;;;;;5010259;28;20508;-60
2022/08/08 11:25:22;;;;;;;0.32;0.32;;;31.70;72.80;;;;;;5024907;28;20427;-60
2022/08/08 11:28:12;;;;;;;0.40;0.40;;;31.40;73.50;;;;;;5029813;28;20637;-61
2022/08/08 11:30:40;;;;;;;0.40;0.30;;;31.40;74.00;;;;;;5022421;28;20432;-60
2022/08/08 11:33:23;;;;;;;0.30;0.30;;;31.50;73.50;;;;;;5009548;28;20445;-60
2022/08/08 11:36:10;;;;;;;0.35;0.35;;;31.80;74.00;;;;;;5029539;28;20411;-60
2022/08/08 11:38:44;;;;;;;0.40;0.40;;;32.00;71.70;;;;;;5025582;28;20873;-60
2022/08/08 11:41:23;;;;;;;0.30;0.30;;;31.90;71.70;;;;;;5009362;28;20515;-60
2022/08/08 11:43:52;;;;;;;0.30;0.30;;;32.30;72.20;;;;;;5026067;28;20431;-60
2022/08/08 11:46:24;;;;;;;0.30;0.30;;;32.60;71.30;;;;;;5009852;28;20515;-60
2022/08/08 11:48:54;;;;;;;0.47;0.47;;;32.40;72.40;;;;;;5010302;28;20434;-60
2022/08/08 11:51:23;;;;;;;0.30;0.30;;;31.80;72.30;;;;;;5009340;28;20425;-61
2022/08/08 11:54:07;;;;;;;0.30;0.30;;;31.40;72.80;;;;;;5009198;28;20509;-61
2022/08/08 11:56:54;;;;;;;0.30;0.30;;;31.00;72.90;;;;;;5023686;28;20420;-60
2022/08/08 11:59:33;;;;;;;0.30;0.30;;;31.20;73.50;;;;;;5020023;28;20427;-60
2022/08/08 12:02:22;;;;;;;0.40;0.40;;;31.60;73.80;;;;;;5033153;28;20426;-60
2022/08/08 12:05:10;;;;;;;0.40;0.38;;;30.50;72.50;;;;;;5023043;28;20807;-60
2022/08/08 12:07:50;;;;;;;0.32;0.32;;;30.70;74.90;;;;;;5012601;28;20977;-60
2022/08/08 12:10:23;;;;;;;0.30;0.30;;;31.30;74.10;;;;;;5025125;28;20496;-60
2022/08/08 12:13:10;;;;;;;0.30;0.30;;;31.60;72.90;;;;;;5032856;28;20498;-60
2022/08/08 12:15:47;;;;;;;0.28;0.28;;;31.90;71.90;;;;;;5031044;28;20462;-62
2022/08/08 12:18:25;;;;;;;0.22;0.22;;;31.90;72.50;;;;;;5033119;28;20436;-62
2022/08/08 12:20:54;;;;;;;0.30;0.30;;;32.20;72.80;;;;;;5017501;28;20555;-61
2022/08/08 12:23:37;;;;;;;0.40;0.40;;;32.50;72.20;;;;;;5025631;28;20440;-61
2022/08/08 12:26:39;;;;;;;0.40;0.40;;;32.10;71.40;;;;;;5030469;28;20439;-61
2022/08/08 12:29:31;;;;;;;0.30;0.30;;;31.90;72.20;;;;;;5033028;28;20517;-62
2022/08/08 12:32:13;;;;;;;0.30;0.30;;;31.40;71.70;;;;;;5012963;28;20436;-61
2022/08/08 12:34:55;;;;;;;0.30;0.30;;;30.90;72.90;;;;;;5015075;28;20485;-60
2022/08/08 12:37:34;;;;;;;0.38;0.38;;;30.30;72.90;;;;;;5027220;28;20430;-60
2022/08/08 12:40:17;;;;;;;0.30;0.30;;;30.90;72.70;;;;;;5028139;28;20798;-60
2022/08/08 12:42:50;;;;;;;0.22;0.22;;;31.20;72.40;;;;;;5032530;28;20470;-60
2022/08/08 12:45:18;;;;;;;0.30;0.30;;;31.40;72.90;;;;;;5026710;28;20437;-60
2022/08/08 12:48:14;;;;;;;0.30;0.30;;;31.40;71.60;;;;;;5032841;28;20426;-60
2022/08/08 12:51:01;;;;;;;0.30;0.30;;;31.40;72.60;;;;;;5019107;28;20929;-60
2022/08/08 12:53:32;;;;;;;0.30;0.30;;;31.60;71.80;;;;;;5043388;28;20482;-60
2022/08/08 12:56:07;;;;;;;0.60;0.40;;;31.80;70.50;;;;;;5024236;28;20510;-61
2022/08/08 12:58:51;;;;;;;0.30;0.30;;;32.00;70.70;;;;;;5032404;28;21206;-60
2022/08/08 13:01:33;;;;;;;0.30;0.30;;;32.10;71.20;;;;;;5029503;28;20427;-62
2022/08/08 13:04:16;;;;;;;0.20;0.20;;;32.20;70.90;;;;;;5031668;28;20967;-59
2022/08/08 13:07:05;;;;;;;0.30;0.30;;;32.40;70.90;;;;;;5020825;28;20443;-60
2022/08/08 13:10:00;;;;;;;0.40;0.40;;;32.80;70.60;;;;;;5011075;28;20502;-61
2022/08/08 13:12:46;;;;;;;0.30;0.30;;;33.10;69.00;;;;;;5012646;28;20961;-60
2022/08/08 13:15:16;;;;;;;0.30;0.30;;;32.60;68.80;;;;;;5028043;28;20440;-60
2022/08/08 13:17:46;;;;;;;0.30;0.30;;;32.20;68.50;;;;;;5040249;28;20464;-61
2022/08/08 13:20:43;;;;;;;0.30;0.30;;;32.10;69.10;;;;;;5040940;28;20947;-61
2022/08/08 13:23:18;;;;;;;0.30;0.30;;;32.50;69.90;;;;;;5011829;28;20435;-61
2022/08/08 13:26:09;;;;;;;0.40;0.40;;;32.60;68.50;;;;;;5021009;28;20454;-61
2022/08/08 13:28:42;;;;;;;0.40;0.40;;;32.50;69.90;;;;;;5032135;28;20433;-61
2022/08/08 13:31:14;;;;;;;0.40;0.40;;;32.30;69.40;;;;;;5022355;28;20486;-61
2022/08/08 13:33:46;;;;;;;0.38;0.38;;;32.80;68.80;;;;;;5011536;28;20467;-61
2022/08/08 13:36:18;;;;;;;0.30;0.30;;;32.80;68.80;;;;;;5011978;28;20467;-60
2022/08/08 13:38:54;;;;;;;0.30;0.30;;;33.00;68.90;;;;;;5039241;28;20785;-61
2022/08/08 13:41:26;;;;;;;0.30;0.30;;;33.50;67.90;;;;;;5028174;28;20423;-61
2022/08/08 13:44:06;;;;;;;0.40;0.40;;;33.70;67.70;;;;;;5031149;28;20438;-61
2022/08/08 13:46:37;;;;;;;0.30;0.30;;;34.10;67.30;;;;;;5027786;28;20488;-60
2022/08/08 13:49:15;;;;;;;0.30;0.30;;;34.30;65.70;;;;;;5031155;28;20500;-61
2022/08/08 13:52:06;;;;;;;0.40;0.40;;;33.90;66.70;;;;;;5028754;28;20426;-61
2022/08/08 13:54:35;;;;;;;0.40;0.40;;;33.70;65.90;;;;;;5029074;28;20433;-61
2022/08/08 13:57:15;;;;;;;0.57;0.30;;;33.60;65.90;;;;;;5031300;28;20431;-61
2022/08/08 13:59:44;;;;;;;0.30;0.30;;;33.70;65.00;;;;;;5012749;28;20784;-61
2022/08/08 14:02:24;;;;;;;0.40;0.40;;;33.80;65.20;;;;;;5013046;28;20459;-61
2022/08/08 14:05:02;;;;;;;0.20;0.20;;;33.80;65.00;;;;;;5011362;28;20487;-61
2022/08/08 14:07:48;;;;;;;0.32;0.32;;;33.80;64.80;;;;;;5011862;28;20803;-61
2022/08/08 14:10:22;;;;;;;0.30;0.30;;;33.80;66.20;;;;;;5014527;28;20492;-62
2022/08/08 14:13:11;;;;;;;0.50;0.50;;;34.10;65.30;;;;;;5018654;28;20522;-61
2022/08/08 14:16:04;;;;;;;0.33;0.33;;;34.70;64.70;;;;;;5030297;28;21173;-61